createdAt,value
2023-03-29T00:03:18.280Z,70.85
2023-03-29T00:08:46.447Z,70.60
2023-03-29T00:14:11.502Z,70.35
2023-03-29T00:19:37.071Z,70.10
2023-03-29T00:25:01.449Z,69.89
2023-03-29T00:30:25.573Z,70.76
2023-03-29T00:35:49.585Z,70.32
2023-03-29T00:41:14.815Z,70.21
2023-03-29T00:46:39.527Z,70.33
2023-03-29T00:52:03.854Z,70.74
2023-03-29T00:57:30.655Z,71.11
2023-03-29T01:02:59.932Z,71.23
2023-03-29T01:08:33.054Z,71.19
2023-03-29T01:14:16.160Z,71.55
2023-03-29T01:19:48.137Z,72.28
2023-03-29T01:25:30.042Z,72.66
2023-03-29T01:31:00.564Z,72.81
2023-03-29T01:36:29.940Z,72.97
2023-03-29T01:42:12.254Z,73.06
2023-03-29T01:47:40.211Z,73.79
2023-03-29T01:53:10.585Z,74.17
2023-03-29T01:58:40.054Z,74.29
2023-03-29T02:04:07.544Z,73.90
2023-03-29T02:09:33.898Z,73.74
2023-03-29T02:15:07.299Z,73.29
2023-03-29T02:20:44.016Z,73.43
2023-03-29T02:26:09.977Z,73.71
2023-03-29T02:31:46.128Z,74.08
2023-03-29T02:37:15.996Z,73.85
2023-03-29T02:42:43.097Z,73.89
2023-03-29T02:48:11.015Z,73.93
2023-03-29T02:53:44.158Z,73.73
2023-03-29T02:59:08.509Z,73.25
2023-03-29T03:04:34.391Z,73.61
2023-03-29T03:09:59.331Z,74.07
2023-03-29T03:15:23.234Z,75.16
2023-03-29T03:21:02.362Z,75.18
2023-03-29T03:26:30.596Z,75.32
2023-03-29T03:31:55.952Z,75.37
2023-03-29T03:37:40.844Z,75.68
2023-03-29T03:43:05.147Z,76.00
2023-03-29T03:48:29.653Z,76.28
2023-03-29T03:54:14.098Z,76.31
2023-03-29T04:00:01.846Z,76.60
2023-03-29T04:05:40.910Z,76.70
2023-03-29T04:11:05.788Z,76.40
2023-03-29T04:16:34.289Z,76.03
2023-03-29T04:22:10.823Z,75.86
2023-03-29T04:27:35.406Z,75.96
2023-03-29T04:33:04.420Z,75.67
2023-03-29T04:38:31.001Z,75.89
2023-03-29T04:43:56.359Z,76.49
2023-03-29T04:49:26.829Z,76.92
2023-03-29T04:54:51.692Z,76.47
2023-03-29T05:00:27.608Z,76.08
2023-03-29T05:06:12.445Z,76.30
2023-03-29T05:11:37.372Z,76.22
2023-03-29T05:17:01.792Z,76.12
2023-03-29T05:22:26.638Z,75.67
2023-03-29T05:27:50.724Z,75.13
2023-03-29T05:33:15.065Z,74.65
2023-03-29T05:38:42.025Z,74.47
2023-03-29T05:44:06.856Z,73.87
2023-03-29T05:49:32.091Z,73.21
2023-03-29T05:55:00.567Z,72.90
2023-03-29T06:00:25.900Z,72.69
2023-03-29T06:06:02.620Z,72.43
2023-03-29T06:11:28.743Z,72.43
2023-03-29T06:17:09.465Z,72.10
2023-03-29T06:22:33.936Z,71.93
2023-03-29T06:27:58.076Z,71.82
2023-03-29T06:33:23.396Z,71.74
2023-03-29T06:39:00.440Z,71.20
2023-03-29T06:44:44.498Z,70.80
2023-03-29T06:50:18.103Z,70.32
2023-03-29T06:55:54.520Z,70.07
2023-03-29T07:01:55.205Z,69.44
2023-03-29T07:08:11.954Z,69.00
2023-03-29T07:13:45.223Z,68.53
2023-03-29T07:19:13.737Z,68.13
2023-03-29T07:24:53.866Z,67.60
2023-03-29T07:30:23.179Z,67.66
2023-03-29T07:35:48.244Z,67.21
2023-03-29T07:41:12.676Z,66.86
2023-03-29T07:47:02.362Z,66.70
2023-03-29T07:52:29.299Z,66.16
2023-03-29T07:57:54.028Z,66.11
2023-03-29T08:03:19.103Z,65.99
2023-03-29T08:08:43.350Z,65.17
2023-03-29T08:14:11.759Z,64.04
2023-03-29T08:19:50.915Z,62.51
2023-03-29T08:25:19.150Z,62.26
2023-03-29T08:30:46.803Z,61.16
2023-03-29T08:36:11.520Z,60.63
2023-03-29T08:42:01.333Z,60.40
2023-03-29T08:47:28.730Z,59.75
2023-03-29T08:52:59.510Z,57.96
2023-03-29T08:58:48.806Z,58.13
2023-03-29T09:04:17.458Z,57.56
2023-03-29T09:09:51.719Z,56.54
2023-03-29T09:15:30.701Z,55.53
2023-03-29T09:21:11.591Z,55.51
2023-03-29T09:26:39.184Z,54.68
2023-03-29T09:32:32.289Z,54.26
2023-03-29T09:37:59.543Z,53.24
2023-03-29T09:43:36.422Z,53.03
2023-03-29T09:49:04.870Z,52.26
2023-03-29T09:54:29.066Z,51.35
2023-03-29T10:00:20.066Z,50.58
2023-03-29T10:05:47.040Z,49.98
2023-03-29T10:11:20.739Z,49.74
2023-03-29T10:16:49.327Z,50.86
2023-03-29T10:22:28.075Z,50.90
2023-03-29T10:27:52.976Z,50.62
2023-03-29T10:33:20.159Z,50.57
2023-03-29T10:38:45.906Z,50.14
2023-03-29T10:44:27.844Z,50.74
2023-03-29T10:49:56.431Z,50.17
2023-03-29T10:55:25.504Z,49.88
2023-03-29T11:00:57.341Z,47.14
2023-03-29T11:06:41.396Z,47.15
2023-03-29T11:12:16.092Z,46.26
2023-03-29T11:18:15.110Z,46.84
2023-03-29T11:24:06.228Z,46.60
2023-03-29T11:29:58.978Z,47.48
2023-03-29T11:35:34.797Z,47.70
2023-03-29T11:41:12.343Z,45.98
2023-03-29T11:46:47.320Z,46.11
2023-03-29T11:52:24.740Z,46.61
2023-03-29T11:58:18.232Z,46.66
2023-03-29T12:03:56.078Z,46.47
2023-03-29T12:09:35.282Z,46.41
2023-03-29T12:15:07.555Z,46.02
2023-03-29T12:20:40.459Z,45.86
2023-03-29T12:26:34.189Z,46.33
2023-03-29T12:31:58.157Z,46.67
2023-03-29T12:38:16.578Z,47.02
2023-03-29T12:44:04.116Z,47.46
2023-03-29T12:49:46.216Z,47.72
2023-03-29T12:55:25.575Z,47.72
2023-03-29T13:01:05.798Z,47.35
2023-03-29T13:06:56.519Z,46.51
2023-03-29T13:12:25.383Z,47.81
2023-03-29T13:18:03.078Z,48.36
2023-03-29T13:23:42.398Z,49.68
2023-03-29T13:29:24.559Z,51.17
2023-03-29T13:34:54.721Z,52.10
2023-03-29T13:40:43.361Z,52.41
2023-03-29T13:46:20.924Z,52.07
2023-03-29T13:51:53.990Z,51.80
2023-03-29T13:57:20.270Z,52.89
2023-03-29T14:03:04.720Z,52.82
2023-03-29T14:08:37.725Z,53.12
2023-03-29T14:14:05.491Z,52.67
2023-03-29T14:19:35.780Z,53.36
2023-03-29T14:25:07.728Z,53.51
2023-03-29T14:30:32.303Z,54.40
2023-03-29T14:36:01.309Z,54.85
2023-03-29T14:41:34.847Z,55.30
2023-03-29T14:47:00.390Z,55.87
2023-03-29T14:52:25.241Z,56.15
2023-03-29T14:57:50.643Z,56.51
2023-03-29T15:03:16.196Z,56.52
2023-03-29T15:08:50.811Z,56.75
2023-03-29T15:14:24.532Z,56.75
2023-03-29T15:19:53.791Z,56.88
2023-03-29T15:25:20.248Z,57.37
2023-03-29T15:30:49.414Z,57.67
2023-03-29T15:36:18.085Z,57.70
2023-03-29T15:41:44.653Z,57.45
2023-03-29T15:47:13.524Z,57.65
2023-03-29T15:52:38.731Z,57.42
2023-03-29T15:58:03.011Z,57.89
2023-03-29T16:03:27.633Z,57.88
2023-03-29T16:08:51.945Z,57.77
2023-03-29T16:14:27.641Z,58.02
2023-03-29T16:19:52.409Z,58.63
2023-03-29T16:25:19.917Z,58.99
2023-03-29T16:30:44.056Z,59.61
2023-03-29T16:36:08.536Z,59.92
2023-03-29T16:41:32.886Z,60.36
2023-03-29T16:47:00.767Z,60.49
2023-03-29T16:52:26.041Z,61.10
2023-03-29T16:57:51.465Z,61.14
2023-03-29T17:03:15.124Z,61.71
2023-03-29T17:08:39.756Z,61.87
2023-03-29T17:14:03.801Z,62.45
2023-03-29T17:19:29.000Z,62.76
2023-03-29T17:24:53.598Z,63.12
2023-03-29T17:30:18.282Z,63.59
2023-03-29T17:35:44.664Z,63.90
2023-03-29T17:41:09.404Z,64.12
2023-03-29T17:46:33.506Z,64.25
2023-03-29T17:51:59.486Z,64.24
2023-03-29T17:57:24.640Z,64.30
2023-03-29T18:02:49.552Z,64.27
2023-03-29T18:08:15.230Z,64.41
2023-03-29T18:13:41.732Z,64.69
2023-03-29T18:19:06.764Z,64.50
2023-03-29T18:24:32.202Z,64.47
2023-03-29T18:29:58.761Z,64.70
2023-03-29T18:35:23.008Z,64.70
2023-03-29T18:40:48.365Z,65.02
2023-03-29T18:46:12.631Z,65.23
2023-03-29T18:51:36.974Z,65.43
2023-03-29T18:57:02.113Z,65.64
2023-03-29T19:02:26.716Z,65.71
2023-03-29T19:07:51.461Z,65.88
2023-03-29T19:13:15.988Z,65.88
2023-03-29T19:18:40.182Z,66.00
2023-03-29T19:24:05.651Z,65.80
2023-03-29T19:29:30.930Z,66.14
2023-03-29T19:34:56.278Z,66.13
2023-03-29T19:40:21.337Z,66.19
2023-03-29T19:45:50.669Z,66.71
2023-03-29T19:51:15.257Z,66.90
2023-03-29T19:56:39.380Z,67.09
2023-03-29T20:02:05.148Z,67.47
2023-03-29T20:07:29.622Z,67.39
2023-03-29T20:12:54.067Z,67.82
2023-03-29T20:18:18.181Z,68.10
2023-03-29T20:23:42.847Z,68.42
2023-03-29T20:29:07.734Z,68.77
2023-03-29T20:34:32.822Z,69.05
2023-03-29T20:39:59.251Z,69.39
2023-03-29T20:45:23.142Z,69.06
2023-03-29T20:50:47.618Z,69.09
2023-03-29T20:56:11.391Z,69.04
2023-03-29T21:01:40.847Z,69.23
2023-03-29T21:07:06.950Z,69.48
2023-03-29T21:12:32.002Z,69.62
2023-03-29T21:17:56.662Z,69.93
2023-03-29T21:23:21.317Z,70.23
2023-03-29T21:28:45.202Z,70.68
2023-03-29T21:34:09.490Z,71.14
2023-03-29T21:39:34.422Z,71.23
2023-03-29T21:44:59.212Z,71.35
2023-03-29T21:50:23.503Z,71.80
2023-03-29T21:55:51.860Z,71.97
2023-03-29T22:01:15.985Z,72.13
2023-03-29T22:06:40.118Z,72.01
2023-03-29T22:12:05.874Z,71.98
2023-03-29T22:17:30.368Z,71.71
2023-03-29T22:22:54.204Z,71.75
2023-03-29T22:28:18.137Z,71.61
2023-03-29T22:33:43.149Z,71.67
2023-03-29T22:39:07.388Z,71.58
2023-03-29T22:44:33.429Z,71.60
2023-03-29T22:49:57.562Z,71.79
2023-03-29T22:55:21.742Z,72.18
2023-03-29T23:00:46.806Z,72.29
2023-03-29T23:06:10.787Z,72.44
2023-03-29T23:11:34.428Z,72.71
2023-03-29T23:17:00.161Z,72.90
2023-03-29T23:22:24.810Z,72.87
2023-03-29T23:27:48.934Z,72.60
2023-03-29T23:33:14.897Z,72.69
2023-03-29T23:38:40.488Z,72.90
2023-03-29T23:44:04.728Z,72.62
2023-03-29T23:49:30.580Z,72.60
2023-03-29T23:54:54.992Z,72.51
